Time;durP1;ratioP1;P1;durP2;ratioP2;P2;SDS_P1;SDS_P2;PMS_P1;PMS_P2;Temp;Humidity;BMP_temperature;BMP_pressure;BME280_temperature;BME280_humidity;BME280_pressure;Samples;Min_cycle;Max_cycle;Signal;HPM_P1;HPM_P2
2024/02/02 00:01:17;;;;;;;20.13;3.85;;;4.50;99.90;;;8.41;100.00;102033.66;5034388;28;20042;-80
2024/02/02 00:03:42;;;;;;;22.52;4.75;;;4.50;99.90;;;8.40;100.00;102045.56;5015786;28;20172;-82
2024/02/02 00:06:08;;;;;;;29.45;5.47;;;4.60;99.90;;;8.43;100.00;102047.94;5033736;28;20029;-80
2024/02/02 00:08:34;;;;;;;27.10;4.13;;;4.70;99.90;;;8.55;100.00;102053.94;5032408;28;20060;-80
2024/02/02 00:11:00;;;;;;;16.85;4.45;;;4.70;99.90;;;8.61;100.00;102033.38;5032746;28;20092;-81
2024/02/02 00:13:26;;;;;;;15.90;3.75;;;4.70;99.90;;;8.74;100.00;102036.41;5032344;28;20041;-80
2024/02/02 00:15:54;;;;;;;22.85;5.18;;;4.80;99.90;;;8.53;100.00;102041.53;5014197;28;20033;-81
2024/02/02 00:18:20;;;;;;;22.27;4.45;;;4.80;99.90;;;8.68;100.00;102034.38;5032873;28;20044;-80
2024/02/02 00:20:46;;;;;;;24.98;4.82;;;4.80;99.90;;;8.68;100.00;102039.00;5034285;28;20041;-81
2024/02/02 00:23:11;;;;;;;19.33;5.00;;;4.90;99.90;;;8.72;100.00;102035.75;5015175;28;20029;-82
2024/02/02 00:25:37;;;;;;;18.60;4.35;;;4.90;99.90;;;8.62;100.00;102033.22;5031498;28;20036;-81
2024/02/02 00:28:03;;;;;;;24.38;5.07;;;4.90;99.90;;;8.28;100.00;102039.59;5032000;28;20394;-81
2024/02/02 00:30:35;;;;;;;27.50;4.43;;;5.00;99.90;;;8.44;100.00;102038.75;5013331;28;20029;-81
2024/02/02 00:33:01;;;;;;;23.80;3.90;;;5.00;99.90;;;8.58;100.00;102036.44;5032351;28;20106;-81
2024/02/02 00:35:27;;;;;;;22.35;4.88;;;5.00;99.90;;;8.61;100.00;102027.94;5032590;28;20095;-81
2024/02/02 00:37:53;;;;;;;21.95;4.35;;;5.00;99.90;;;8.48;100.00;102037.41;5018137;28;20037;-83
2024/02/02 00:40:19;;;;;;;21.08;4.13;;;5.00;99.90;;;8.52;100.00;102034.41;5032464;28;20052;-79
2024/02/02 00:42:45;;;;;;;21.98;3.83;;;5.00;99.90;;;8.78;100.00;102032.38;5032547;28;20029;-81
2024/02/02 00:45:11;;;;;;;20.23;3.67;;;5.00;99.90;;;8.54;100.00;102038.63;5013686;28;20469;-79
2024/02/02 00:47:37;;;;;;;24.30;4.25;;;5.10;99.90;;;8.60;100.00;102032.50;5032344;28;20068;-81
2024/02/02 00:50:05;;;;;;;19.13;3.63;;;5.10;99.90;;;8.77;100.00;102027.94;5028202;28;20029;-83
2024/02/02 00:52:33;;;;;;;17.77;3.67;;;5.10;99.90;;;8.55;100.00;102020.47;5032415;28;20049;-81
2024/02/02 00:55:00;;;;;;;14.85;3.50;;;5.20;99.90;;;8.66;100.00;102028.28;5032456;28;20099;-81
2024/02/02 00:57:27;;;;;;;20.73;3.67;;;5.10;99.90;;;8.71;100.00;102025.88;5032023;28;20088;-80
2024/02/02 00:59:53;;;;;;;19.25;4.10;;;5.20;99.90;;;8.68;100.00;102028.94;5031401;28;20116;-80
2024/02/02 01:02:19;;;;;;;25.40;4.07;;;5.20;99.90;;;9.02;100.00;102014.31;5033582;28;20044;-78
2024/02/02 01:04:45;;;;;;;20.73;3.90;;;5.20;99.90;;;8.82;100.00;102015.69;5032049;28;20451;-80
2024/02/02 01:07:15;;;;;;;20.67;4.25;;;5.20;99.90;;;9.00;100.00;102027.22;5031773;28;20037;-81
2024/02/02 01:09:42;;;;;;;18.95;3.78;;;5.20;99.90;;;8.52;100.00;102032.53;5032976;28;20120;-79
2024/02/02 01:12:08;;;;;;;18.58;3.53;;;5.20;99.90;;;8.62;100.00;102037.78;5032079;28;20041;-82
2024/02/02 01:14:35;;;;;;;16.63;3.85;;;5.20;99.90;;;9.09;100.00;102040.84;5030776;28;20076;-80
2024/02/02 01:17:01;;;;;;;17.13;4.40;;;5.20;99.90;;;9.27;100.00;102033.28;5032247;28;20068;-80
2024/02/02 01:19:27;;;;;;;16.85;3.85;;;5.20;99.90;;;9.16;100.00;102031.81;5031503;28;20087;-79
2024/02/02 01:21:52;;;;;;;20.40;4.40;;;5.20;99.90;;;9.23;100.00;102021.03;5031979;28;20068;-80
2024/02/02 01:24:18;;;;;;;19.95;4.60;;;5.20;99.90;;;9.13;100.00;102009.50;5031446;28;20500;-80
2024/02/02 01:26:44;;;;;;;22.80;4.50;;;5.20;99.90;;;9.16;100.00;102030.94;5029499;28;20030;-81
2024/02/02 01:29:09;;;;;;;24.75;4.68;;;5.20;99.90;;;9.22;100.00;102016.63;5004302;28;20048;-80
2024/02/02 01:31:35;;;;;;;21.00;5.03;;;5.10;99.90;;;9.00;100.00;102027.22;5031983;28;20037;-82
2024/02/02 01:34:01;;;;;;;21.42;5.50;;;5.10;99.90;;;9.13;100.00;102026.69;5031880;28;20041;-80
2024/02/02 01:36:27;;;;;;;31.90;5.95;;;5.10;99.90;;;8.91;100.00;102033.69;5031800;28;20135;-82
2024/02/02 01:38:54;;;;;;;26.05;5.53;;;5.00;99.90;;;9.17;100.00;102029.91;5032078;28;20052;-81
2024/02/02 01:41:20;;;;;;;26.77;5.73;;;5.10;99.90;;;8.94;100.00;102021.63;5030805;28;20123;-82
2024/02/02 01:43:45;;;;;;;24.00;5.82;;;5.10;99.90;;;9.19;100.00;102036.03;5031793;28;20065;-81
2024/02/02 01:46:12;;;;;;;20.20;6.80;;;5.10;99.90;;;9.03;100.00;102040.50;5029231;28;20401;-82
2024/02/02 01:48:38;;;;;;;20.73;6.95;;;5.10;99.90;;;9.09;100.00;102038.09;5031391;28;20060;-81
2024/02/02 01:51:05;;;;;;;22.42;7.00;;;5.10;99.90;;;9.13;100.00;102036.72;4984050;28;20042;-81
2024/02/02 01:53:31;;;;;;;26.40;6.57;;;5.10;99.90;;;9.37;100.00;102033.09;5008195;28;20069;-81
2024/02/02 01:55:57;;;;;;;28.27;7.10;;;5.00;99.90;;;9.39;100.00;102027.47;5022989;28;20395;-82
2024/02/02 01:58:25;;;;;;;21.67;7.25;;;5.10;99.90;;;9.34;100.00;102020.69;5032038;28;20037;-81
2024/02/02 02:00:50;;;;;;;20.73;6.17;;;5.10;99.90;;;8.94;100.00;102021.63;5032083;28;20037;-80
2024/02/02 02:03:16;;;;;;;21.88;7.07;;;5.10;99.90;;;9.05;100.00;102024.84;5030560;28;20046;-82
2024/02/02 02:05:42;;;;;;;20.05;7.13;;;5.10;99.90;;;9.04;100.00;102033.16;5031220;28;20082;-81
2024/02/02 02:08:07;;;;;;;23.17;8.02;;;5.10;99.90;;;9.17;100.00;102025.34;5030395;28;20392;-79
2024/02/02 02:10:34;;;;;;;21.05;6.60;;;5.10;99.90;;;8.68;100.00;102014.50;5030881;28;20112;-82
2024/02/02 02:12:59;;;;;;;24.77;6.68;;;5.10;99.90;;;8.80;100.00;102020.47;5031288;28;20036;-81
2024/02/02 02:15:26;;;;;;;20.40;6.55;;;5.10;99.90;;;8.98;100.00;102020.25;5030576;28;20041;-80
2024/02/02 02:17:51;;;;;;;23.65;6.90;;;5.10;99.90;;;8.98;100.00;102006.66;5031191;28;20037;-79
2024/02/02 02:20:22;;;;;;;22.63;6.13;;;5.10;99.90;;;8.78;100.00;102013.31;5046267;28;20107;-79
2024/02/02 02:22:49;;;;;;;21.40;6.28;;;5.00;99.90;;;8.76;100.00;101999.03;5031219;28;20116;-80
2024/02/02 02:25:15;;;;;;;20.15;6.50;;;5.00;99.90;;;8.62;100.00;102007.88;5030629;28;20033;-81
2024/02/02 02:27:40;;;;;;;22.35;5.85;;;5.00;99.90;;;8.77;100.00;101989.84;5030086;28;20041;-80
2024/02/02 02:30:07;;;;;;;18.00;6.43;;;5.00;99.90;;;8.80;100.00;101976.91;5031102;28;20087;-81
2024/02/02 02:32:32;;;;;;;23.35;6.68;;;5.00;99.90;;;8.85;100.00;101988.97;5030388;28;20044;-81
2024/02/02 02:34:58;;;;;;;23.85;6.47;;;5.00;99.90;;;8.69;100.00;101987.13;5030675;28;20037;-80
2024/02/02 02:37:24;;;;;;;19.98;6.20;;;5.00;99.90;;;8.85;100.00;101983.53;5031125;28;20037;-80
2024/02/02 02:39:49;;;;;;;21.70;6.15;;;5.00;99.90;;;8.82;100.00;101964.81;5046001;28;20040;-80
2024/02/02 02:42:15;;;;;;;21.83;6.13;;;5.00;99.90;;;8.73;100.00;101958.53;5029659;28;20044;-80
2024/02/02 02:44:41;;;;;;;19.90;5.60;;;5.00;99.90;;;8.61;100.00;101968.09;5029561;28;20041;-80
2024/02/02 02:47:07;;;;;;;18.20;5.43;;;5.10;99.90;;;8.80;100.00;101963.31;5026973;28;20116;-79
2024/02/02 02:49:33;;;;;;;25.85;6.53;;;5.10;99.90;;;8.86;100.00;101944.41;5030597;28;20107;-80
2024/02/02 02:51:59;;;;;;;21.48;5.30;;;5.00;99.90;;;8.75;100.00;101966.53;5030688;28;20033;-79
2024/02/02 02:54:24;;;;;;;19.33;5.30;;;5.00;99.90;;;8.76;100.00;101960.94;5031048;28;20033;-79
2024/02/02 02:56:50;;;;;;;24.80;5.72;;;5.00;99.90;;;8.77;100.00;101948.16;5029383;28;20109;-80
2024/02/02 02:59:16;;;;;;;18.63;6.03;;;5.00;99.90;;;8.64;100.00;101954.13;5030441;28;20103;-81
2024/02/02 03:01:43;;;;;;;17.02;5.32;;;5.00;99.90;;;8.57;100.00;101956.69;5029260;28;20555;-79
2024/02/02 03:04:09;;;;;;;24.02;6.05;;;4.90;99.90;;;8.39;100.00;101942.41;5031552;28;20026;-78
2024/02/02 03:06:35;;;;;;;17.63;5.50;;;4.90;99.90;;;8.53;100.00;101944.44;5030900;28;20481;-79
2024/02/02 03:09:01;;;;;;;24.23;5.78;;;4.90;99.90;;;8.36;100.00;101943.59;5020696;28;20029;-80
2024/02/02 03:11:26;;;;;;;23.52;6.47;;;4.90;99.90;;;8.42;100.00;101956.50;5029583;28;20523;-80
2024/02/02 03:13:52;;;;;;;19.10;5.90;;;4.90;99.90;;;8.56;100.00;101948.72;5030466;28;20114;-80
2024/02/02 03:16:18;;;;;;;21.58;5.95;;;4.80;99.90;;;8.18;100.00;101944.59;5029741;28;20037;-80
2024/02/02 03:18:44;;;;;;;19.65;6.55;;;4.80;99.90;;;8.50;100.00;101944.81;5030207;28;20038;-80
2024/02/02 03:21:09;;;;;;;21.40;5.82;;;4.80;99.90;;;8.39;100.00;101948.69;5030314;28;20037;-80
2024/02/02 03:23:35;;;;;;;26.98;6.90;;;4.80;99.90;;;8.60;100.00;101950.06;5049956;28;20091;-79
2024/02/02 03:26:00;;;;;;;19.40;5.80;;;4.80;99.90;;;8.59;100.00;101940.22;5049811;28;20378;-79
2024/02/02 03:28:26;;;;;;;20.85;6.00;;;4.80;99.90;;;8.57;100.00;101947.69;5016658;28;20040;-79
2024/02/02 03:30:52;;;;;;;18.05;5.97;;;4.80;99.90;;;8.70;100.00;101936.28;5033634;28;20495;-80
2024/02/02 03:33:18;;;;;;;25.17;6.43;;;4.80;99.90;;;8.56;100.00;101943.28;5032870;28;20044;-79
2024/02/02 03:35:43;;;;;;;22.70;5.72;;;4.80;99.90;;;8.40;100.00;101941.38;5028668;28;20381;-79
2024/02/02 03:38:09;;;;;;;22.08;5.68;;;4.80;99.90;;;8.66;100.00;101949.38;5014419;28;20041;-79
2024/02/02 03:40:35;;;;;;;21.05;6.05;;;4.90;99.90;;;8.85;100.00;101939.13;5034092;28;20037;-80
2024/02/02 03:43:01;;;;;;;26.17;5.90;;;4.90;99.90;;;8.68;100.00;101928.28;5033718;28;20037;-80
2024/02/02 03:45:27;;;;;;;22.92;5.80;;;5.00;99.90;;;8.86;100.00;101933.50;5033540;28;20140;-80
2024/02/02 03:47:52;;;;;;;23.42;5.38;;;5.00;99.90;;;8.94;100.00;101929.09;5049841;28;20037;-81
2024/02/02 03:50:18;;;;;;;22.55;5.68;;;5.10;99.90;;;8.88;100.00;101930.63;5033125;28;20040;-80
2024/02/02 03:52:44;;;;;;;20.95;5.03;;;5.10;99.90;;;8.68;100.00;101917.41;5034254;28;20444;-79
2024/02/02 03:55:10;;;;;;;18.55;5.72;;;5.20;99.90;;;8.72;100.00;101920.63;5033446;28;20048;-79
2024/02/02 03:57:36;;;;;;;16.33;5.00;;;5.20;99.90;;;8.58;100.00;101919.47;5016013;28;20421;-80
2024/02/02 04:00:04;;;;;;;18.55;5.13;;;5.30;99.90;;;8.75;100.00;101910.25;5033580;28;20080;-79
2024/02/02 04:02:38;;;;;;;16.20;4.68;;;5.40;99.90;;;8.92;100.00;101910.19;5033039;28;20049;-80
2024/02/02 04:05:05;;;;;;;20.02;5.45;;;5.40;99.90;;;9.05;100.00;101909.66;5023890;28;20045;-80
2024/02/02 04:07:31;;;;;;;20.33;5.63;;;5.40;99.90;;;8.75;100.00;101904.81;5026507;28;20041;-80
2024/02/02 04:09:57;;;;;;;18.70;4.80;;;5.50;99.90;;;9.06;100.00;101904.03;5033660;28;20045;-81
2024/02/02 04:12:22;;;;;;;20.88;5.85;;;5.50;99.90;;;9.30;100.00;101904.97;5033563;28;20037;-79
2024/02/02 04:14:48;;;;;;;20.40;5.22;;;5.50;99.90;;;9.31;100.00;101903.06;5033183;28;20033;-80
2024/02/02 04:17:14;;;;;;;16.33;4.82;;;5.50;99.90;;;8.96;100.00;101894.38;5048251;28;20396;-80
2024/02/02 04:19:40;;;;;;;18.77;4.70;;;5.60;99.90;;;9.21;100.00;101901.41;5030924;28;20033;-79
2024/02/02 04:22:05;;;;;;;14.65;4.97;;;5.60;99.90;;;9.19;99.79;101889.84;5033734;28;20359;-79
2024/02/02 04:24:31;;;;;;;21.17;4.85;;;5.60;99.90;;;9.48;98.47;101892.94;5032450;28;20435;-80
2024/02/02 04:26:57;;;;;;;15.45;4.32;;;5.70;99.90;;;9.27;98.24;101880.78;5033120;28;20025;-80
2024/02/02 04:29:22;;;;;;;19.42;4.32;;;5.70;99.90;;;9.46;95.81;101886.81;5033306;28;20049;-79
2024/02/02 04:31:48;;;;;;;15.75;4.38;;;5.70;99.90;;;9.10;96.14;101879.19;5033028;28;20469;-80
2024/02/02 04:34:14;;;;;;;16.90;4.55;;;5.70;99.90;;;9.70;95.27;101893.16;5031638;28;20033;-80
2024/02/02 04:36:40;;;;;;;14.60;4.32;;;5.70;99.90;;;9.52;93.81;101888.81;5046871;28;20096;-80
2024/02/02 04:39:08;;;;;;;18.45;4.13;;;5.70;99.90;;;9.58;93.68;101885.41;5032698;28;20034;-80
2024/02/02 04:41:34;;;;;;;17.53;4.20;;;5.70;99.90;;;9.55;93.03;101877.59;5031874;28;20500;-80
2024/02/02 04:44:00;;;;;;;14.40;4.18;;;5.70;99.90;;;9.79;90.99;101870.25;5032821;28;20366;-79
2024/02/02 04:46:26;;;;;;;14.18;3.83;;;5.70;99.90;;;9.64;91.08;101868.31;5031018;28;20485;-80
2024/02/02 04:48:52;;;;;;;17.02;4.30;;;5.70;99.90;;;9.41;92.96;101843.75;5031951;28;20358;-79
2024/02/02 04:51:18;;;;;;;16.35;3.75;;;5.70;99.90;;;9.40;93.97;101850.25;5013397;28;20045;-80
2024/02/02 04:53:44;;;;;;;14.98;3.97;;;5.60;99.90;;;9.32;94.44;101845.72;5023082;28;20045;-79
2024/02/02 04:56:10;;;;;;;20.42;5.18;;;5.60;99.90;;;9.26;94.67;101843.69;5032508;28;20492;-80
2024/02/02 04:58:35;;;;;;;16.27;5.30;;;5.60;99.90;;;9.19;97.75;101840.84;5032567;28;20041;-80
2024/02/02 05:01:01;;;;;;;16.67;4.60;;;5.60;99.90;;;9.26;96.74;101840.97;5031104;28;20049;-80
2024/02/02 05:03:27;;;;;;;17.00;4.75;;;5.50;99.90;;;9.21;94.87;101818.88;5031933;28;20053;-80
2024/02/02 05:05:53;;;;;;;11.80;4.55;;;5.60;99.90;;;9.03;94.17;101820.00;5032502;28;20095;-80
2024/02/02 05:08:20;;;;;;;16.30;5.07;;;5.60;99.90;;;9.33;92.14;101825.63;5046688;28;20509;-79
2024/02/02 05:10:46;;;;;;;15.98;4.95;;;5.60;99.90;;;9.22;92.63;101817.84;5031161;28;20505;-81
2024/02/02 05:13:11;;;;;;;17.88;4.93;;;5.70;99.90;;;9.14;90.65;101826.06;5038157;28;20159;-79
2024/02/02 05:15:37;;;;;;;20.10;4.93;;;5.70;99.90;;;9.41;89.51;101808.34;5030943;28;20158;-81
2024/02/02 05:18:03;;;;;;;15.68;4.93;;;5.80;99.90;;;9.28;88.46;101789.91;5014248;28;20044;-80
2024/02/02 05:20:29;;;;;;;16.40;5.63;;;5.80;99.90;;;9.25;88.26;101806.59;5031548;28;20068;-81
2024/02/02 05:22:55;;;;;;;16.23;5.30;;;5.80;99.90;;;9.28;89.26;101810.84;5029403;28;20474;-80
2024/02/02 05:25:20;;;;;;;17.38;5.63;;;5.80;99.90;;;9.53;88.28;101813.41;5007831;28;20064;-81
2024/02/02 05:27:46;;;;;;;17.58;4.97;;;5.80;99.90;;;9.05;89.82;101812.50;5009630;28;20147;-81
2024/02/02 05:30:12;;;;;;;19.92;5.68;;;5.80;99.90;;;9.04;91.68;101826.28;5027235;28;20560;-81
2024/02/02 05:32:37;;;;;;;16.65;5.88;;;5.80;99.90;;;9.28;91.85;101833.50;5010794;28;20108;-80
2024/02/02 05:35:04;;;;;;;18.65;6.03;;;5.80;99.90;;;9.37;91.54;101833.44;5030878;28;20701;-81
2024/02/02 05:37:29;;;;;;;18.88;6.68;;;5.70;99.90;;;9.33;92.92;101843.81;5031440;28;20069;-80
2024/02/02 05:39:55;;;;;;;19.73;6.90;;;5.70;99.90;;;9.22;94.29;101842.34;5031720;28;20047;-81
2024/02/02 05:42:22;;;;;;;20.23;6.75;;;5.60;99.90;;;8.80;96.19;101844.41;5019300;28;20046;-81
2024/02/02 05:44:47;;;;;;;23.15;7.93;;;5.60;99.90;;;9.05;98.41;101842.44;5028528;28;20034;-81
2024/02/02 05:47:13;;;;;;;17.40;7.95;;;5.60;99.90;;;9.01;98.53;101827.47;5024400;28;20053;-81
2024/02/02 05:49:38;;;;;;;23.50;8.18;;;5.60;99.90;;;9.31;96.34;101838.56;5031547;28;20044;-81
2024/02/02 05:52:04;;;;;;;16.27;7.05;;;5.50;99.90;;;9.40;95.69;101830.34;5013745;28;20052;-82
2024/02/02 05:54:30;;;;;;;21.42;7.75;;;5.50;99.90;;;9.24;94.97;101826.69;5030906;28;20034;-82
2024/02/02 05:56:56;;;;;;;27.45;7.20;;;5.60;99.90;;;9.25;96.01;101827.53;5031162;28;20393;-81
2024/02/02 05:59:22;;;;;;;22.30;6.95;;;5.60;99.90;;;9.22;96.24;101823.28;5031956;28;20037;-81
2024/02/02 06:01:49;;;;;;;16.23;5.95;;;5.60;99.90;;;9.34;94.77;101821.00;5031399;28;20053;-82
2024/02/02 06:04:14;;;;;;;20.52;7.05;;;5.60;99.90;;;9.04;96.90;101827.16;5031505;28;20132;-80
2024/02/02 06:06:40;;;;;;;19.63;7.43;;;5.60;99.90;;;9.04;98.42;101826.28;5026154;28;20116;-81
2024/02/02 06:09:06;;;;;;;21.92;8.43;;;5.60;99.90;;;9.04;99.95;101832.59;5030616;28;20509;-81
2024/02/02 06:11:32;;;;;;;28.85;8.63;;;5.50;99.90;;;8.67;100.00;101825.09;5030543;28;20045;-80
2024/02/02 06:13:57;;;;;;;20.23;9.23;;;5.50;99.90;;;8.49;100.00;101840.63;5011840;28;20782;-80
2024/02/02 06:16:24;;;;;;;25.88;9.70;;;5.50;99.90;;;8.38;100.00;101821.06;5029717;28;20033;-79
2024/02/02 06:18:50;;;;;;;24.47;9.80;;;5.40;99.90;;;8.83;100.00;101799.69;5030658;28;20052;-79
2024/02/02 06:21:16;;;;;;;20.83;10.18;;;5.40;99.90;;;8.44;100.00;101791.28;5029964;28;20041;-79
2024/02/02 06:23:41;;;;;;;22.98;9.52;;;5.40;99.90;;;8.47;100.00;101774.59;5013151;28;20095;-80
2024/02/02 06:26:07;;;;;;;23.38;9.10;;;5.40;99.90;;;8.43;100.00;101769.72;5030509;28;20036;-80
2024/02/02 06:28:33;;;;;;;27.13;9.52;;;5.40;99.90;;;8.35;100.00;101787.75;5013305;28;20065;-79
2024/02/02 06:30:59;;;;;;;26.00;8.80;;;5.30;99.90;;;8.02;100.00;101771.50;5029471;28;20041;-79
2024/02/02 06:33:24;;;;;;;22.65;9.63;;;5.20;99.90;;;8.25;100.00;101773.50;4994399;28;20072;-80
2024/02/02 06:35:50;;;;;;;26.80;9.70;;;5.20;99.90;;;7.91;100.00;101774.56;5029457;28;20501;-78
2024/02/02 06:38:16;;;;;;;24.25;10.15;;;5.20;99.90;;;8.35;100.00;101776.88;5024314;28;20041;-78
2024/02/02 06:40:41;;;;;;;31.85;10.90;;;5.20;99.90;;;8.16;100.00;101786.25;5036169;28;20488;-77
2024/02/02 06:43:07;;;;;;;28.20;9.80;;;5.20;99.90;;;7.82;100.00;101768.31;5032687;28;20037;-79
2024/02/02 06:45:33;;;;;;;23.80;10.20;;;5.20;99.90;;;8.34;100.00;101777.03;5036201;28;20044;-79
2024/02/02 06:47:59;;;;;;;24.35;10.95;;;5.20;99.90;;;8.44;100.00;101765.97;5041411;28;20033;-79
2024/02/02 06:50:25;;;;;;;26.42;11.23;;;5.30;99.90;;;8.74;100.00;101756.16;5035130;28;20044;-79
2024/02/02 06:52:51;;;;;;;23.05;9.93;;;5.30;99.90;;;8.26;100.00;101742.56;5037092;28;20045;-79
2024/02/02 06:55:17;;;;;;;29.08;11.25;;;5.30;99.90;;;8.17;100.00;101760.75;5033773;28;20118;-77
2024/02/02 06:57:43;;;;;;;26.65;11.35;;;5.30;99.90;;;8.57;100.00;101749.13;5024858;28;20038;-80
2024/02/02 07:00:16;;;;;;;26.48;11.02;;;5.40;99.90;;;8.48;100.00;101757.25;5023654;28;20133;-77
2024/02/02 07:02:43;;;;;;;26.63;11.93;;;5.40;99.90;;;8.52;100.00;101752.38;5026789;28;20050;-80
2024/02/02 07:05:13;;;;;;;27.70;12.23;;;5.40;99.90;;;8.84;100.00;101746.97;5023239;28;20486;-80
2024/02/02 07:07:40;;;;;;;32.95;12.23;;;5.40;99.90;;;8.75;100.00;101747.00;5010321;28;20397;-80
2024/02/02 07:10:12;;;;;;;26.63;11.80;;;5.50;99.90;;;8.40;100.00;101743.69;5045025;28;20038;-81
2024/02/02 07:12:40;;;;;;;34.47;11.77;;;5.50;99.90;;;8.83;100.00;101742.53;5020687;28;20124;-79
2024/02/02 07:15:11;;;;;;;27.38;12.52;;;5.50;99.90;;;8.52;100.00;101740.66;5031763;28;20034;-81
2024/02/02 07:17:39;;;;;;;28.42;12.50;;;5.50;99.90;;;8.69;100.00;101716.94;5028203;28;20042;-82
2024/02/02 07:20:24;;;;;;;;;;;5.50;99.90;;;8.69;100.00;101698.72;5030513;28;20030;-81
2024/02/02 07:22:54;;;;;;;26.30;12.18;;;5.60;99.90;;;8.79;100.00;101706.66;5049672;28;19967;-79
2024/02/02 07:25:22;;;;;;;22.55;11.18;;;5.60;99.90;;;8.65;100.00;101721.88;5031454;28;20033;-79
2024/02/02 07:27:51;;;;;;;25.15;11.30;;;5.60;99.90;;;8.93;100.00;101705.03;5015296;28;20049;-80
2024/02/02 07:30:55;;;;;;;29.08;11.73;;;5.70;99.90;;;8.97;100.00;101709.09;5030376;28;20032;-80
2024/02/02 07:33:43;;;;;;;22.77;10.50;;;5.70;99.90;;;9.05;100.00;101705.47;5027925;28;20048;-81
2024/02/02 07:36:33;;;;;;;29.02;11.52;;;5.70;99.90;;;9.08;100.00;101699.66;5030048;28;20061;-79
2024/02/02 07:39:00;;;;;;;25.10;10.63;;;5.70;99.90;;;8.80;100.00;101699.38;5030907;28;20072;-80
2024/02/02 07:41:28;;;;;;;22.85;9.85;;;5.80;99.90;;;9.20;100.00;101700.97;5031814;28;20061;-81
2024/02/02 07:43:58;;;;;;;31.27;10.13;;;5.80;99.90;;;8.92;100.00;101712.38;5028800;28;20042;-79
2024/02/02 07:46:25;;;;;;;27.70;9.32;;;5.80;99.90;;;9.20;100.00;101703.69;5031413;28;20033;-79
2024/02/02 07:48:53;;;;;;;27.23;9.32;;;5.90;99.90;;;9.28;100.00;101700.06;5017849;28;20645;-78
2024/02/02 07:51:22;;;;;;;18.67;8.05;;;5.90;99.90;;;9.35;100.00;101716.47;5028697;28;20034;-79
2024/02/02 07:53:49;;;;;;;27.27;8.25;;;6.00;99.90;;;9.38;100.00;101696.22;5023912;28;20129;-81
2024/02/02 07:56:17;;;;;;;30.52;8.60;;;6.00;99.90;;;9.27;100.00;101706.50;5027618;28;20092;-79
2024/02/02 07:58:44;;;;;;;24.05;7.50;;;6.00;99.90;;;9.24;100.00;101698.69;5032729;28;20509;-80
2024/02/02 08:01:10;;;;;;;25.10;7.50;;;6.10;99.90;;;9.50;100.00;101683.84;5020218;28;20099;-82
2024/02/02 08:03:37;;;;;;;21.83;7.45;;;6.10;99.90;;;9.45;99.98;101684.41;5026151;28;20052;-79
2024/02/02 08:06:04;;;;;;;19.08;7.18;;;6.10;99.90;;;9.39;100.00;101693.28;5012667;28;20045;-82
2024/02/02 08:08:32;;;;;;;23.25;6.95;;;6.20;99.90;;;9.45;100.00;101683.56;5030891;28;20059;-80
2024/02/02 08:10:59;;;;;;;21.38;7.43;;;6.20;99.90;;;9.53;99.93;101683.47;5035430;28;20037;-79
2024/02/02 08:13:25;;;;;;;20.40;6.85;;;6.20;99.90;;;9.58;99.77;101678.34;5034046;28;20126;-81
2024/02/02 08:15:51;;;;;;;20.40;6.57;;;6.20;99.90;;;9.05;100.00;101680.97;5036506;28;20055;-80
2024/02/02 08:18:17;;;;;;;20.38;6.60;;;6.30;99.90;;;9.55;99.67;101675.13;5033988;28;20033;-80
2024/02/02 08:20:43;;;;;;;19.13;6.45;;;6.30;99.90;;;9.72;98.26;101673.09;5039967;28;20481;-83
2024/02/02 08:23:08;;;;;;;21.30;6.78;;;6.30;99.90;;;9.80;97.79;101662.09;5040962;28;20043;-80
2024/02/02 08:25:34;;;;;;;23.80;6.75;;;6.30;99.90;;;9.67;98.47;101672.81;5038468;28;20069;-83
2024/02/02 08:28:01;;;;;;;19.17;6.75;;;6.30;99.90;;;9.92;95.74;101657.00;5039457;28;20033;-79
2024/02/02 08:30:27;;;;;;;22.13;7.33;;;6.40;99.90;;;9.61;97.41;101669.78;5039262;28;20378;-79
2024/02/02 08:32:53;;;;;;;23.05;6.80;;;6.30;99.90;;;9.52;97.58;101672.78;5036604;28;20053;-78
2024/02/02 08:35:23;;;;;;;18.80;6.28;;;6.40;99.90;;;10.06;95.14;101666.22;5043121;28;20435;-79
2024/02/02 08:38:01;;;;;;;19.52;6.40;;;6.40;99.90;;;9.81;96.51;101652.03;5035448;28;20045;-80
2024/02/02 08:40:43;;;;;;;19.35;6.28;;;6.40;99.90;;;9.81;95.86;101655.59;5032360;28;20040;-79
2024/02/02 08:43:19;;;;;;;21.48;6.30;;;6.40;99.90;;;9.87;94.29;101637.66;5032217;28;20056;-81
2024/02/02 08:46:01;;;;;;;14.30;5.70;;;6.40;99.90;;;9.66;93.70;101624.78;5036244;28;20136;-80
2024/02/02 08:48:41;;;;;;;17.65;6.15;;;6.40;99.90;;;9.61;94.74;101650.72;5046254;28;20037;-79
2024/02/02 08:51:22;;;;;;;21.65;6.80;;;6.50;99.90;;;10.12;92.06;101629.19;5026366;28;20025;-82
2024/02/02 08:53:50;;;;;;;16.38;5.93;;;6.60;99.90;;;10.11;91.52;101624.78;5040301;28;20029;-83
2024/02/02 08:56:15;;;;;;;28.65;7.75;;;6.70;99.90;;;10.31;89.35;101635.94;5042667;28;20038;-76
2024/02/02 08:58:41;;;;;;;22.70;7.95;;;6.80;99.90;;;10.41;89.05;101622.03;5043538;28;20044;-78
2024/02/02 09:01:41;;;;;;;17.30;6.43;;;6.90;99.90;;;10.41;87.66;101609.25;5037788;28;20044;-79
2024/02/02 09:04:34;;;;;;;17.38;6.50;;;7.00;99.90;;;10.54;86.56;101621.31;5031174;28;20488;-80
2024/02/02 09:06:59;;;;;;;20.10;7.13;;;7.10;99.90;;;10.67;86.36;101610.56;5045342;28;20503;-83
2024/02/02 09:09:25;;;;;;;18.48;6.78;;;7.10;99.90;;;10.51;86.03;101598.03;5022952;28;20041;-79
2024/02/02 09:11:51;;;;;;;19.70;6.90;;;7.20;99.90;;;10.45;85.88;101591.44;5041570;28;20048;-80
2024/02/02 09:14:18;;;;;;;20.92;6.80;;;7.30;99.90;;;10.81;84.47;101591.59;5042550;28;20497;-81
2024/02/02 09:16:52;;;;;;;16.25;6.78;;;7.30;99.90;;;10.55;83.41;101599.31;5043541;28;20073;-78
2024/02/02 09:19:36;;;;;;;18.73;7.20;;;7.40;99.90;;;10.57;83.64;101604.56;5040814;28;20037;-79
2024/02/02 09:22:11;;;;;;;22.27;6.68;;;7.50;99.90;;;11.13;82.66;101595.66;5042274;28;20025;-80
2024/02/02 09:24:42;;;;;;;14.40;6.53;;;7.60;99.90;;;11.05;81.25;101587.63;5043783;28;20033;-81
2024/02/02 09:27:19;;;;;;;15.48;6.32;;;7.60;99.90;;;10.97;80.82;101571.34;5039827;28;20056;-77
2024/02/02 09:29:49;;;;;;;17.98;7.07;;;7.70;99.90;;;10.98;81.43;101590.28;5043942;28;20479;-80
2024/02/02 09:32:15;;;;;;;19.45;7.10;;;7.60;99.90;;;10.59;82.51;101591.56;5019412;28;20040;-78
2024/02/02 09:34:43;;;;;;;20.45;7.38;;;7.50;99.90;;;10.18;84.97;101598.44;5041314;28;20036;-79
2024/02/02 09:37:24;;;;;;;19.52;7.45;;;7.40;99.90;;;10.76;84.49;101603.09;5021060;28;20037;-77
2024/02/02 09:39:57;;;;;;;20.30;7.88;;;7.40;99.90;;;10.88;83.22;101584.31;5027462;28;20065;-79
2024/02/02 09:43:19;;;;;;;18.88;7.65;;;7.40;99.90;;;11.06;80.32;101584.69;5010357;28;20041;-79
2024/02/02 09:46:20;;;;;;;24.55;7.63;;;7.50;99.90;;;10.96;83.09;101586.06;5014410;28;20072;-79
2024/02/02 09:49:27;;;;;;;24.67;7.82;;;7.60;99.90;;;11.13;82.67;101597.53;5055846;28;20094;-78
2024/02/02 09:52:30;;;;;;;17.33;7.65;;;7.60;99.90;;;11.00;83.36;101595.53;5040527;28;20041;-78
2024/02/02 09:55:07;;;;;;;20.08;7.53;;;7.60;99.90;;;10.67;83.61;101585.16;5017340;28;20045;-78
2024/02/02 09:57:49;;;;;;;22.33;7.85;;;7.60;99.90;;;10.81;85.42;101603.38;5013468;28;20034;-79
2024/02/02 10:00:46;;;;;;;17.55;7.45;;;7.60;99.90;;;10.89;83.67;101589.56;5031645;28;20052;-79
2024/02/02 10:03:47;;;;;;;22.55;7.72;;;7.70;99.90;;;10.98;82.93;101587.56;5030969;28;20063;-81
2024/02/02 10:06:58;;;;;;;19.25;8.07;;;7.70;99.90;;;10.78;84.74;101599.13;5026984;28;20069;-79
2024/02/02 10:10:13;;;;;;;19.42;8.10;;;7.60;99.90;;;11.13;83.14;101578.41;5030219;28;20037;-78
2024/02/02 10:13:17;;;;;;;23.20;7.82;;;7.70;99.90;;;11.12;84.99;101577.59;5030060;28;20041;-77
2024/02/02 10:15:46;;;;;;;16.02;7.53;;;7.70;99.90;;;11.19;83.43;101581.22;5027876;28;20503;-80
2024/02/02 10:18:34;;;;;;;20.45;8.02;;;7.70;99.90;;;11.31;82.70;101586.97;5046799;28;20096;-80
2024/02/02 10:21:49;;;;;;;22.73;7.90;;;7.70;99.90;;;11.59;81.98;101577.91;5021076;28;20040;-80